createdAt,value
2022-11-21T00:02:35.025Z,22.53
2022-11-21T00:08:01.486Z,23.73
2022-11-21T00:13:28.378Z,23.80
2022-11-21T00:18:58.654Z,24.87
2022-11-21T00:24:31.572Z,24.60
2022-11-21T00:29:56.998Z,25.67
2022-11-21T00:35:28.196Z,25.97
2022-11-21T00:40:59.669Z,24.90
2022-11-21T00:46:38.379Z,25.70
2022-11-21T00:52:05.891Z,26.60
2022-11-21T00:57:29.959Z,27.10
2022-11-21T01:02:57.290Z,25.03
2022-11-21T01:08:46.410Z,26.53
2022-11-21T01:14:19.149Z,25.70
2022-11-21T01:19:48.060Z,25.40
2022-11-21T01:25:18.671Z,29.13
2022-11-21T01:30:51.808Z,26.60
2022-11-21T01:36:17.238Z,26.70
2022-11-21T01:41:52.074Z,26.33
2022-11-21T01:47:25.938Z,27.20
2022-11-21T01:52:52.647Z,27.37
2022-11-21T01:58:23.486Z,27.07
2022-11-21T02:03:53.489Z,24.83
2022-11-21T02:09:19.390Z,26.50
2022-11-21T02:14:47.459Z,24.50
2022-11-21T02:20:18.761Z,24.27
2022-11-21T02:26:09.574Z,26.00
2022-11-21T02:31:35.567Z,25.93
2022-11-21T02:43:19.857Z,22.73
2022-11-21T02:49:02.839Z,23.00
2022-11-21T02:54:29.660Z,20.63
2022-11-21T02:59:57.012Z,25.43
2022-11-21T03:05:30.661Z,24.87
2022-11-21T03:11:18.799Z,24.47
2022-11-21T03:16:44.635Z,25.77
2022-11-21T03:22:12.464Z,29.10
2022-11-21T03:27:43.340Z,28.80
2022-11-21T03:33:27.911Z,25.80
2022-11-21T03:38:59.056Z,27.40
2022-11-21T03:44:39.355Z,24.77
2022-11-21T03:50:40.945Z,24.27
2022-11-21T03:56:13.939Z,25.97
2022-11-21T04:01:53.862Z,29.03
2022-11-21T04:07:34.845Z,25.07
2022-11-21T04:12:58.930Z,32.57
2022-11-21T04:18:29.813Z,27.17
2022-11-21T04:23:58.263Z,29.67
2022-11-21T04:29:40.330Z,26.43
2022-11-21T04:35:35.048Z,23.77
2022-11-21T04:41:03.417Z,30.07
2022-11-21T04:52:22.187Z,26.70
2022-11-21T04:58:04.999Z,25.93
2022-11-21T05:03:46.209Z,30.50
2022-11-21T05:09:35.791Z,25.33
2022-11-21T05:15:05.191Z,23.47
2022-11-21T05:20:36.587Z,23.33
2022-11-21T05:26:23.902Z,23.83
2022-11-21T05:37:38.170Z,26.30
2022-11-21T05:43:27.092Z,27.73
2022-11-21T05:49:11.316Z,25.87
2022-11-21T05:54:43.647Z,26.27
2022-11-21T06:00:18.041Z,27.33
2022-11-21T06:05:42.737Z,31.83
2022-11-21T06:11:13.860Z,29.37
2022-11-21T06:16:44.466Z,27.87
2022-11-21T06:22:17.182Z,33.97
2022-11-21T06:27:51.808Z,34.53
2022-11-21T06:33:17.507Z,33.00
2022-11-21T06:38:45.869Z,30.13
2022-11-21T06:44:16.309Z,37.70
2022-11-21T06:49:39.833Z,30.87
2022-11-21T06:55:05.503Z,33.37
2022-11-21T07:00:48.552Z,37.23
2022-11-21T07:06:14.223Z,35.00
2022-11-21T07:11:46.297Z,34.10
2022-11-21T07:17:17.535Z,33.67
2022-11-21T07:22:42.480Z,33.73
2022-11-21T07:28:11.084Z,33.07
2022-11-21T07:33:53.913Z,34.47
2022-11-21T07:39:23.769Z,33.30
2022-11-21T07:44:54.605Z,31.27
2022-11-21T07:50:18.795Z,31.70
2022-11-21T07:55:52.015Z,36.83
2022-11-21T08:01:25.530Z,32.77
2022-11-21T08:06:52.728Z,35.33
2022-11-21T08:12:32.756Z,35.03
2022-11-21T08:18:03.927Z,32.33
2022-11-21T08:23:34.294Z,25.53
2022-11-21T08:29:11.690Z,27.20
2022-11-21T08:34:36.789Z,24.67
2022-11-21T08:40:07.005Z,26.97
2022-11-21T08:45:35.670Z,27.70
2022-11-21T08:51:03.833Z,27.53
2022-11-21T08:56:31.009Z,23.20
2022-11-21T09:02:06.244Z,28.83
2022-11-21T09:07:37.686Z,24.83
2022-11-21T09:13:06.463Z,25.67
2022-11-21T09:18:51.461Z,24.00
2022-11-21T09:24:22.495Z,25.17
2022-11-21T09:29:58.586Z,22.70
2022-11-21T09:35:29.563Z,23.60
2022-11-21T09:41:22.927Z,22.63
2022-11-21T09:46:55.897Z,20.97
2022-11-21T09:52:33.708Z,21.53
2022-11-21T09:58:03.793Z,22.73
2022-11-21T10:03:32.999Z,22.80
2022-11-21T10:09:10.031Z,23.23
2022-11-21T10:14:59.068Z,24.77
2022-11-21T10:21:08.501Z,22.43
2022-11-21T10:26:46.455Z,23.37
2022-11-21T10:32:21.556Z,22.93
2022-11-21T10:37:50.009Z,23.53
2022-11-21T10:43:48.408Z,23.83
2022-11-21T10:49:36.622Z,24.17
2022-11-21T10:55:10.818Z,23.80
2022-11-21T11:00:35.576Z,20.90
2022-11-21T11:06:07.577Z,20.07
2022-11-21T11:11:49.877Z,17.90
2022-11-21T11:17:19.345Z,19.23
2022-11-21T11:22:44.891Z,16.30
2022-11-21T11:28:13.552Z,18.13
2022-11-21T11:33:40.036Z,16.07
2022-11-21T11:39:23.689Z,12.20
2022-11-21T11:45:18.007Z,14.30
2022-11-21T11:50:49.785Z,14.63
2022-11-21T11:56:27.738Z,16.33
2022-11-21T12:02:01.754Z,22.63
2022-11-21T12:08:38.812Z,17.77
2022-11-21T12:13:33.253Z,20.03
2022-11-21T12:19:10.535Z,23.53
2022-11-21T12:24:43.540Z,22.30
2022-11-21T12:30:49.284Z,20.33
2022-11-21T12:36:37.598Z,19.67
2022-11-21T12:48:38.278Z,18.83
2022-11-21T13:00:21.937Z,18.07
2022-11-21T13:06:09.558Z,16.73
2022-11-21T13:12:12.092Z,18.53
2022-11-21T13:18:00.797Z,18.23
2022-11-21T13:23:45.375Z,16.63
2022-11-21T13:29:21.868Z,17.60
2022-11-21T13:35:01.992Z,17.33
2022-11-21T13:41:09.915Z,19.73
2022-11-21T13:47:08.338Z,19.47
2022-11-21T13:52:41.167Z,17.30
2022-11-21T13:58:22.264Z,17.13
2022-11-21T14:04:23.446Z,23.53
2022-11-21T14:09:55.448Z,26.07
2022-11-21T14:15:44.014Z,25.87
2022-11-21T14:21:13.895Z,25.33
2022-11-21T14:26:48.690Z,20.57
2022-11-21T14:32:31.945Z,20.27
2022-11-21T14:38:24.705Z,18.97
2022-11-21T14:43:51.165Z,16.50
2022-11-21T14:49:31.135Z,17.27
2022-11-21T14:55:28.748Z,16.77
2022-11-21T15:00:59.970Z,16.70
2022-11-21T15:06:34.527Z,18.37
2022-11-21T15:12:14.818Z,20.27
2022-11-21T15:18:10.162Z,20.93
2022-11-21T15:23:44.638Z,23.83
2022-11-21T15:29:38.337Z,24.47
2022-11-21T15:35:01.991Z,21.13
2022-11-21T15:40:24.297Z,21.00
2022-11-21T15:45:33.893Z,23.37
2022-11-21T15:50:44.388Z,22.60
2022-11-21T15:56:21.245Z,22.70
2022-11-21T16:01:39.572Z,20.90
2022-11-21T16:06:55.325Z,23.50
2022-11-21T16:12:10.965Z,23.30
2022-11-21T16:17:18.032Z,22.67
2022-11-21T16:22:29.069Z,26.17
2022-11-21T16:27:36.742Z,27.97
2022-11-21T16:32:41.844Z,27.50
2022-11-21T16:37:50.870Z,33.13
2022-11-21T16:43:17.745Z,28.00
2022-11-21T16:48:42.218Z,29.47
2022-11-21T16:53:52.237Z,29.20
2022-11-21T16:59:13.977Z,29.30
2022-11-21T17:04:28.153Z,30.07
2022-11-21T17:09:37.218Z,28.87
2022-11-21T17:15:29.645Z,31.83
2022-11-21T17:20:39.663Z,31.87
2022-11-21T17:25:52.684Z,33.80
2022-11-21T17:31:21.011Z,26.83
2022-11-21T17:36:29.019Z,31.77
2022-11-21T17:42:03.539Z,35.10
2022-11-21T17:52:33.020Z,34.63
2022-11-21T17:57:43.085Z,34.27
2022-11-21T18:08:53.466Z,33.30
2022-11-21T18:14:02.382Z,36.60
2022-11-21T18:19:13.170Z,34.53
2022-11-21T18:24:24.580Z,34.33
2022-11-21T18:29:38.469Z,32.10
2022-11-21T18:34:44.402Z,34.40
2022-11-21T18:39:51.599Z,37.03
2022-11-21T18:44:56.056Z,36.20
2022-11-21T18:50:08.149Z,38.23
2022-11-21T18:55:27.895Z,32.67
2022-11-21T19:00:55.320Z,35.83
2022-11-21T19:06:22.950Z,34.73
2022-11-21T19:12:12.404Z,36.80
2022-11-21T19:17:43.052Z,36.20
2022-11-21T19:23:07.826Z,38.03
2022-11-21T19:28:37.703Z,36.97
2022-11-21T19:34:28.972Z,34.83
2022-11-21T19:39:55.564Z,31.90
2022-11-21T19:45:18.336Z,34.57
2022-11-21T19:50:59.386Z,37.03
2022-11-21T19:56:33.909Z,39.40
2022-11-21T20:02:03.268Z,34.93
2022-11-21T20:07:28.343Z,39.53
2022-11-21T20:13:15.449Z,35.07
2022-11-21T20:18:53.726Z,35.80
2022-11-21T20:24:28.747Z,39.63
2022-11-21T20:30:02.875Z,37.53
2022-11-21T20:35:27.954Z,38.33
2022-11-21T20:40:54.959Z,36.10
2022-11-21T20:46:28.860Z,39.57
2022-11-21T20:57:38.800Z,43.70
2022-11-21T21:03:12.060Z,38.60
2022-11-21T21:09:00.797Z,47.33
2022-11-21T21:14:29.028Z,61.00
2022-11-21T21:20:06.871Z,56.80
2022-11-21T21:25:41.301Z,48.20
2022-11-21T21:31:27.918Z,76.70
2022-11-21T21:37:14.066Z,63.33
2022-11-21T21:42:39.114Z,62.83
2022-11-21T21:48:09.500Z,52.13
2022-11-21T21:53:44.459Z,59.17
2022-11-21T21:59:21.577Z,74.23
2022-11-21T22:05:02.087Z,60.13
2022-11-21T22:10:35.187Z,53.87
2022-11-21T22:16:16.019Z,55.87
2022-11-21T22:22:10.299Z,30.07
2022-11-21T22:27:50.923Z,35.17
2022-11-21T22:39:13.161Z,31.20
2022-11-21T22:45:06.831Z,29.67
2022-11-21T22:50:39.632Z,29.23
2022-11-21T22:56:08.086Z,31.00
2022-11-21T23:07:21.201Z,25.43
2022-11-21T23:12:56.112Z,23.67
2022-11-21T23:18:23.489Z,24.57
2022-11-21T23:23:49.643Z,22.13
2022-11-21T23:29:17.279Z,23.03
2022-11-21T23:34:42.868Z,23.27
2022-11-21T23:40:05.922Z,18.90
2022-11-21T23:45:29.488Z,20.23
2022-11-21T23:51:00.133Z,22.33
2022-11-21T23:56:54.656Z,21.83
